Time;durP1;ratioP1;P1;durP2;ratioP2;P2;SDS_P1;SDS_P2;PMS_P1;PMS_P2;Temp;Humidity;BMP_temperature;BMP_pressure;BME280_temperature;BME280_humidity;BME280_pressure;Samples;Min_cycle;Max_cycle;Signal;HPM_P1;HPM_P2
2024/01/07 00:00:03;;;;;;;3.25;1.75;;;4.10;1.00;;;;;;5057344;28;20044;-78
2024/01/07 00:02:33;;;;;;;1.00;0.95;;;4.10;1.00;;;;;;5061677;28;20037;-78
2024/01/07 00:04:59;;;;;;;3.28;2.13;;;4.10;1.00;;;;;;5059811;28;20025;-78
2024/01/07 00:07:25;;;;;;;2.08;1.30;;;4.10;1.00;;;;;;5070565;28;20032;-78
2024/01/07 00:09:51;;;;;;;0.65;0.57;;;4.10;1.00;;;;;;5058536;28;20048;-78
2024/01/07 00:12:17;;;;;;;1.17;1.17;;;4.10;1.00;;;;;;5060744;28;20039;-78
2024/01/07 00:14:43;;;;;;;0.85;0.85;;;4.10;1.00;;;;;;5058658;28;20045;-78
2024/01/07 00:17:10;;;;;;;1.35;1.27;;;4.10;1.00;;;;;;5058789;28;20040;-78
2024/01/07 00:19:37;;;;;;;5.15;3.28;;;4.10;1.00;;;;;;5060023;28;20049;-78
2024/01/07 00:22:03;;;;;;;1.65;1.55;;;4.10;1.00;;;;;;5066476;28;20055;-77
2024/01/07 00:24:29;;;;;;;2.30;1.42;;;4.10;1.00;;;;;;5050789;28;20059;-78
2024/01/07 00:26:56;;;;;;;3.28;2.15;;;4.10;99.90;;;;;;5060024;28;20029;-78
2024/01/07 00:29:22;;;;;;;2.15;1.42;;;4.10;99.90;;;;;;5041759;28;20044;-78
2024/01/07 00:31:48;;;;;;;1.17;1.10;;;4.10;1.00;;;;;;5059542;28;20033;-77
2024/01/07 00:34:14;;;;;;;2.10;1.73;;;4.10;1.00;;;;;;5058722;28;20029;-77
2024/01/07 00:36:40;;;;;;;0.98;0.95;;;4.10;1.00;;;;;;5071463;28;20070;-77
2024/01/07 00:39:07;;;;;;;3.58;2.65;;;4.10;99.90;;;;;;5080945;28;20024;-78
2024/01/07 00:41:33;;;;;;;2.88;2.63;;;4.10;1.00;;;;;;5080035;28;20031;-77
2024/01/07 00:43:59;;;;;;;0.82;0.40;;;4.00;99.90;;;;;;5079052;28;20346;-77
2024/01/07 00:46:25;;;;;;;1.10;1.10;;;4.10;99.90;;;;;;5078970;28;20024;-77
2024/01/07 00:48:52;;;;;;;1.48;1.38;;;4.10;99.90;;;;;;5075772;28;20043;-77
2024/01/07 00:51:18;;;;;;;1.60;1.50;;;4.10;99.90;;;;;;5064198;28;20048;-77
2024/01/07 00:53:44;;;;;;;1.45;1.35;;;4.00;99.90;;;;;;5044691;28;20044;-77
2024/01/07 00:56:10;;;;;;;1.30;1.20;;;4.10;99.90;;;;;;5074104;28;20036;-78
2024/01/07 00:58:37;;;;;;;1.63;1.52;;;4.00;99.90;;;;;;5078305;28;20032;-76
2024/01/07 01:01:03;;;;;;;1.85;0.77;;;4.00;99.90;;;;;;5079725;28;20036;-76
2024/01/07 01:03:29;;;;;;;1.35;1.25;;;4.00;99.90;;;;;;5078967;28;20039;-77
2024/01/07 01:05:55;;;;;;;0.70;0.70;;;4.00;99.90;;;;;;5081105;28;20039;-76
2024/01/07 01:08:23;;;;;;;0.65;0.65;;;4.00;99.90;;;;;;5078442;28;20032;-76
2024/01/07 01:10:49;;;;;;;0.80;0.80;;;4.00;99.90;;;;;;5064212;28;20044;-77
2024/01/07 01:13:15;;;;;;;2.55;0.95;;;4.00;99.90;;;;;;5078972;28;20035;-77
2024/01/07 01:15:41;;;;;;;2.85;1.50;;;4.00;99.90;;;;;;5074379;28;20051;-77
2024/01/07 01:18:08;;;;;;;1.60;1.50;;;4.00;99.90;;;;;;5076778;28;20380;-79
2024/01/07 01:20:34;;;;;;;1.63;1.52;;;4.00;99.90;;;;;;5067731;28;20470;-77
2024/01/07 01:23:00;;;;;;;3.92;1.00;;;4.00;99.90;;;;;;5078255;28;20025;-77
2024/01/07 01:25:27;;;;;;;2.97;1.45;;;4.00;99.90;;;;;;5080135;28;20043;-77
2024/01/07 01:27:53;;;;;;;0.30;0.30;;;4.00;99.90;;;;;;5082900;28;20027;-77
2024/01/07 01:30:19;;;;;;;0.20;0.20;;;4.00;99.90;;;;;;5079146;28;20032;-78
2024/01/07 01:32:45;;;;;;;2.00;1.65;;;4.00;99.90;;;;;;5060694;28;20048;-76
2024/01/07 01:35:11;;;;;;;0.43;0.43;;;4.10;99.90;;;;;;5059138;28;20417;-77
2024/01/07 01:37:38;;;;;;;0.65;0.65;;;4.10;99.90;;;;;;5037890;28;1083242;-77
2024/01/07 01:40:04;;;;;;;0.70;0.70;;;4.10;99.90;;;;;;5077598;28;20390;-77
2024/01/07 01:42:31;;;;;;;0.43;0.43;;;4.00;99.90;;;;;;5080781;28;20025;-77
2024/01/07 01:45:01;;;;;;;0.55;0.55;;;4.00;99.90;;;;;;5081769;28;20051;-76
2024/01/07 01:47:29;;;;;;;0.65;0.65;;;4.00;99.90;;;;;;5057290;28;20044;-76
2024/01/07 01:49:55;;;;;;;1.02;0.88;;;4.00;99.90;;;;;;5060274;28;20036;-76
2024/01/07 01:52:22;;;;;;;9.43;2.13;;;4.00;99.90;;;;;;5071527;28;20048;-76
2024/01/07 01:54:48;;;;;;;0.57;0.40;;;4.00;99.90;;;;;;5078441;28;20047;-76
2024/01/07 01:57:20;;;;;;;0.95;0.90;;;4.10;99.90;;;;;;5077599;28;20039;-76
2024/01/07 01:59:47;;;;;;;0.47;0.47;;;4.00;99.90;;;;;;5060417;28;20063;-76
2024/01/07 02:02:14;;;;;;;0.20;0.20;;;4.00;99.90;;;;;;5069047;28;20039;-76
2024/01/07 02:04:40;;;;;;;0.47;0.47;;;4.00;99.90;;;;;;5076406;28;20043;-76
2024/01/07 02:07:07;;;;;;;0.28;0.28;;;4.00;99.90;;;;;;5081607;28;20021;-76
2024/01/07 02:09:33;;;;;;;0.73;0.73;;;4.00;99.90;;;;;;5076630;28;20040;-76
2024/01/07 02:12:04;;;;;;;0.10;0.10;;;4.00;99.90;;;;;;5042156;28;20036;-77
2024/01/07 02:14:30;;;;;;;;;;;4.00;99.90;;;;;;5078804;28;20400;-78
2024/01/07 02:16:56;;;;;;;1.88;0.80;;;4.00;99.90;;;;;;5059875;28;19908;-77
2024/01/07 02:19:22;;;;;;;0.10;0.10;;;4.00;99.90;;;;;;5078680;28;20033;-76
2024/01/07 02:21:51;;;;;;;0.88;0.70;;;4.00;99.90;;;;;;5085305;28;20488;-75
2024/01/07 02:24:17;;;;;;;2.38;0.57;;;4.00;99.90;;;;;;5088768;28;20370;-75
2024/01/07 02:26:43;;;;;;;1.55;0.40;;;4.00;99.90;;;;;;5079320;28;20047;-75
2024/01/07 02:29:09;;;;;;;0.55;0.55;;;4.00;99.90;;;;;;5079543;28;20031;-77
2024/01/07 02:31:35;;;;;;;0.77;0.60;;;4.00;99.90;;;;;;5083006;28;20059;-76
2024/01/07 02:34:02;;;;;;;2.63;0.65;;;4.00;99.90;;;;;;5068262;28;20044;-77
2024/01/07 02:36:28;;;;;;;0.82;0.60;;;4.00;99.90;;;;;;5080708;28;20063;-77
2024/01/07 02:38:54;;;;;;;0.95;0.95;;;4.00;99.90;;;;;;5081531;28;20036;-77
2024/01/07 02:41:21;;;;;;;0.93;0.93;;;4.00;99.90;;;;;;5081595;28;20036;-77
2024/01/07 02:43:47;;;;;;;0.47;0.47;;;4.00;99.90;;;;;;5081293;28;20032;-78
2024/01/07 02:46:14;;;;;;;0.52;0.52;;;4.00;99.90;;;;;;5087236;28;20040;-79
2024/01/07 02:48:40;;;;;;;0.75;0.75;;;4.00;99.90;;;;;;5083291;28;20389;-77
2024/01/07 02:51:08;;;;;;;0.10;0.10;;;4.00;99.90;;;;;;5080993;28;20449;-78
2024/01/07 02:53:34;;;;;;;0.55;0.55;;;4.00;99.90;;;;;;5083576;28;20051;-77
2024/01/07 02:56:00;;;;;;;0.30;0.30;;;4.00;99.90;;;;;;5064350;28;20047;-78
2024/01/07 02:58:27;;;;;;;0.45;0.45;;;4.00;99.90;;;;;;5082760;28;20504;-78
2024/01/07 03:00:53;;;;;;;0.82;0.82;;;4.00;99.90;;;;;;5081909;28;20055;-77
2024/01/07 03:03:19;;;;;;;0.73;0.73;;;4.00;99.90;;;;;;5065877;28;20047;-77
2024/01/07 03:05:45;;;;;;;0.77;0.77;;;4.00;99.90;;;;;;5080412;28;20033;-76
2024/01/07 03:08:11;;;;;;;1.50;1.02;;;3.90;99.90;;;;;;5065405;28;20062;-77
2024/01/07 03:10:37;;;;;;;0.73;0.60;;;3.90;99.90;;;;;;5083985;28;20036;-77
2024/01/07 03:13:04;;;;;;;0.68;0.63;;;4.00;99.90;;;;;;5081721;28;20025;-77
2024/01/07 03:15:30;;;;;;;0.75;0.75;;;4.00;99.90;;;;;;5076234;28;20401;-77
2024/01/07 03:17:57;;;;;;;0.17;0.17;;;4.00;99.90;;;;;;5082691;28;20037;-77
2024/01/07 03:20:24;;;;;;;0.85;0.85;;;4.00;99.90;;;;;;5082143;28;20054;-77
2024/01/07 03:22:50;;;;;;;0.30;0.30;;;4.00;99.90;;;;;;5081945;28;20032;-77
2024/01/07 03:25:16;;;;;;;0.85;0.85;;;4.00;99.90;;;;;;5079534;28;20035;-77
2024/01/07 03:27:42;;;;;;;0.65;0.65;;;4.00;99.90;;;;;;5081153;28;20048;-77
2024/01/07 03:30:09;;;;;;;4.18;2.20;;;4.00;99.90;;;;;;5083551;28;20124;-77
2024/01/07 03:32:35;;;;;;;0.75;0.65;;;4.00;99.90;;;;;;5080876;28;20027;-77
2024/01/07 03:35:03;;;;;;;0.80;0.70;;;4.00;99.90;;;;;;5079956;28;20045;-77
2024/01/07 03:37:29;;;;;;;4.47;0.93;;;4.00;99.90;;;;;;5081792;28;20045;-76
2024/01/07 03:39:55;;;;;;;0.57;0.57;;;4.00;99.90;;;;;;5079395;28;20032;-77
2024/01/07 03:42:21;;;;;;;1.15;1.10;;;4.00;99.90;;;;;;5082625;28;20562;-77
2024/01/07 03:44:47;;;;;;;0.20;0.20;;;4.00;99.90;;;;;;5079320;28;20480;-77
2024/01/07 03:47:13;;;;;;;1.95;1.85;;;4.00;99.90;;;;;;5079107;28;20046;-76
2024/01/07 03:49:39;;;;;;;0.63;0.63;;;4.00;99.90;;;;;;5082115;28;20044;-77
2024/01/07 03:52:06;;;;;;;1.40;1.30;;;4.00;99.90;;;;;;5084185;28;20043;-77
2024/01/07 03:54:33;;;;;;;1.00;0.85;;;4.00;99.90;;;;;;5080584;28;20028;-77
2024/01/07 03:56:59;;;;;;;0.30;0.30;;;4.00;99.90;;;;;;5080465;28;20028;-78
2024/01/07 03:59:26;;;;;;;1.15;1.10;;;4.00;99.90;;;;;;5070945;28;20037;-78
2024/01/07 04:01:56;;;;;;;1.33;0.65;;;4.00;99.90;;;;;;5079959;28;20464;-78
2024/01/07 04:04:23;;;;;;;0.10;0.10;;;4.00;99.90;;;;;;5080902;28;20033;-78
2024/01/07 04:06:49;;;;;;;0.63;0.38;;;4.00;99.90;;;;;;5080739;28;20040;-78
2024/01/07 04:09:15;;;;;;;0.40;0.40;;;4.00;99.90;;;;;;5084970;28;20039;-77
2024/01/07 04:11:42;;;;;;;0.70;0.70;;;4.00;99.90;;;;;;5080030;28;20040;-77
2024/01/07 04:14:09;;;;;;;0.45;0.45;;;4.00;99.90;;;;;;5082003;28;20032;-77
2024/01/07 04:16:35;;;;;;;0.35;0.35;;;4.00;99.90;;;;;;5078080;28;20033;-78
2024/01/07 04:19:01;;;;;;;1.02;1.00;;;4.00;94.60;;;;;;5079596;28;20023;-76
2024/01/07 04:21:27;;;;;;;0.75;0.75;;;4.00;99.90;;;;;;5081589;28;20028;-77
2024/01/07 04:23:54;;;;;;;3.22;0.85;;;4.00;99.90;;;;;;5077886;28;20374;-75
2024/01/07 04:26:20;;;;;;;0.60;0.60;;;4.00;99.90;;;;;;5061081;28;20434;-76
2024/01/07 04:28:46;;;;;;;0.50;0.50;;;4.00;93.70;;;;;;5080325;28;20477;-75
2024/01/07 04:31:12;;;;;;;0.20;0.20;;;4.00;76.70;;;;;;5078477;28;20074;-75
2024/01/07 04:33:38;;;;;;;0.75;0.75;;;4.00;61.80;;;;;;5082338;28;20028;-76
2024/01/07 04:36:05;;;;;;;1.25;1.15;;;4.00;56.70;;;;;;5078982;28;20048;-76
2024/01/07 04:38:31;;;;;;;0.40;0.40;;;4.00;46.80;;;;;;5080200;28;20046;-76
2024/01/07 04:40:57;;;;;;;1.67;1.50;;;4.00;47.50;;;;;;5083170;28;20601;-78
2024/01/07 04:43:24;;;;;;;0.52;0.52;;;4.00;55.80;;;;;;5081193;28;20040;-78
2024/01/07 04:45:50;;;;;;;0.65;0.65;;;4.00;71.10;;;;;;5078130;28;20032;-77
2024/01/07 04:48:16;;;;;;;0.80;0.80;;;4.00;56.00;;;;;;5078813;28;20028;-78
2024/01/07 04:50:42;;;;;;;1.77;1.65;;;4.00;58.40;;;;;;5079095;28;20385;-78
2024/01/07 04:53:09;;;;;;;1.45;0.43;;;4.00;54.80;;;;;;5077317;28;20035;-78
2024/01/07 04:55:36;;;;;;;0.10;0.10;;;4.00;71.10;;;;;;5077082;28;20032;-78
2024/01/07 04:58:04;;;;;;;0.60;0.60;;;4.00;51.50;;;;;;5079709;28;20604;-78
2024/01/07 05:00:30;;;;;;;3.05;0.88;;;4.00;61.60;;;;;;5079250;28;20024;-76
2024/01/07 05:02:57;;;;;;;0.30;0.30;;;4.00;63.10;;;;;;5077494;28;20055;-78
2024/01/07 05:05:23;;;;;;;3.25;1.00;;;3.90;71.30;;;;;;5074937;28;20413;-78
2024/01/07 05:07:49;;;;;;;0.20;0.20;;;4.00;88.50;;;;;;5072596;28;20043;-78
2024/01/07 05:10:15;;;;;;;0.63;0.47;;;4.00;85.50;;;;;;5061410;28;20076;-78
2024/01/07 05:12:41;;;;;;;0.82;0.82;;;4.00;94.20;;;;;;5064323;28;20051;-78
2024/01/07 05:15:09;;;;;;;0.10;0.10;;;3.90;98.70;;;;;;5078103;28;20041;-78
2024/01/07 05:17:35;;;;;;;0.10;0.10;;;3.90;99.50;;;;;;5079681;28;20040;-78
2024/01/07 05:20:01;;;;;;;2.33;0.57;;;3.90;99.90;;;;;;5063261;28;20353;-79
2024/01/07 05:22:27;;;;;;;1.25;0.95;;;3.90;99.90;;;;;;5081466;28;20039;-78
2024/01/07 05:24:53;;;;;;;3.15;1.08;;;3.90;99.90;;;;;;5079183;28;20035;-76
2024/01/07 05:27:19;;;;;;;1.13;1.10;;;4.00;99.90;;;;;;5080465;28;20047;-77
2024/01/07 05:29:47;;;;;;;0.77;0.75;;;3.90;99.90;;;;;;5066030;28;20043;-77
2024/01/07 05:32:13;;;;;;;0.82;0.82;;;3.90;99.90;;;;;;5079568;28;20368;-78
2024/01/07 05:34:39;;;;;;;1.75;1.65;;;3.90;99.90;;;;;;5078935;28;20035;-77
2024/01/07 05:37:05;;;;;;;7.38;2.55;;;3.90;99.90;;;;;;5078664;28;20055;-77
2024/01/07 05:39:31;;;;;;;0.68;0.30;;;3.90;99.90;;;;;;5067070;28;20044;-77
2024/01/07 05:41:57;;;;;;;0.40;0.40;;;3.90;99.90;;;;;;5078488;28;20580;-77
2024/01/07 05:44:24;;;;;;;0.75;0.75;;;3.90;99.90;;;;;;5076615;28;20024;-74
2024/01/07 05:46:50;;;;;;;0.47;0.47;;;3.90;99.90;;;;;;5081549;28;20385;-78
2024/01/07 05:49:16;;;;;;;0.80;0.80;;;3.90;99.90;;;;;;5078051;28;20051;-76
2024/01/07 05:51:42;;;;;;;0.20;0.20;;;3.90;99.90;;;;;;5079059;28;20354;-78
2024/01/07 05:54:08;;;;;;;1.35;1.30;;;3.90;99.90;;;;;;5061095;28;20037;-76
2024/01/07 05:56:41;;;;;;;2.75;0.85;;;3.90;99.90;;;;;;5073888;28;20045;-76
2024/01/07 05:59:08;;;;;;;0.47;0.47;;;3.90;99.90;;;;;;5081684;28;20024;-78
2024/01/07 06:01:34;;;;;;;1.70;1.60;;;3.90;99.90;;;;;;5081681;28;20024;-79
2024/01/07 06:04:01;;;;;;;2.33;0.93;;;3.90;99.90;;;;;;5079591;28;20048;-76
2024/01/07 06:06:27;;;;;;;1.08;0.98;;;4.00;99.90;;;;;;5076433;28;20037;-77
2024/01/07 06:08:53;;;;;;;1.52;1.02;;;4.00;99.90;;;;;;5081356;28;20051;-78
2024/01/07 06:11:20;;;;;;;0.80;0.80;;;3.90;99.90;;;;;;5080557;28;20021;-78
2024/01/07 06:13:46;;;;;;;0.73;0.73;;;3.90;99.90;;;;;;5065331;28;20040;-78
2024/01/07 06:16:13;;;;;;;0.35;0.28;;;3.90;99.90;;;;;;5077439;28;20036;-78
2024/01/07 06:18:39;;;;;;;2.17;2.00;;;3.90;99.90;;;;;;5077791;28;20492;-77
2024/01/07 06:21:05;;;;;;;0.60;0.60;;;4.00;99.90;;;;;;5078370;28;20036;-78
2024/01/07 06:23:35;;;;;;;0.85;0.85;;;3.90;99.90;;;;;;5077571;28;20471;-77
2024/01/07 06:26:05;;;;;;;0.65;0.65;;;3.90;99.90;;;;;;5079563;28;20051;-77
2024/01/07 06:28:32;;;;;;;0.25;0.25;;;3.90;99.90;;;;;;5079771;28;20028;-78
2024/01/07 06:30:58;;;;;;;0.73;0.73;;;3.90;99.90;;;;;;5060518;28;20032;-77
2024/01/07 06:33:25;;;;;;;12.80;2.38;;;3.90;99.90;;;;;;5082215;28;20032;-77
2024/01/07 06:35:51;;;;;;;0.77;0.70;;;3.90;99.90;;;;;;5077445;28;20059;-78
2024/01/07 06:38:17;;;;;;;1.13;0.95;;;4.00;99.90;;;;;;5076138;28;20036;-77
2024/01/07 06:40:43;;;;;;;0.10;0.10;;;3.90;99.90;;;;;;5077545;28;20032;-77
2024/01/07 06:43:09;;;;;;;1.35;1.20;;;4.00;99.90;;;;;;5082382;28;20039;-77
2024/01/07 06:45:35;;;;;;;1.23;1.15;;;3.90;99.90;;;;;;5075852;28;20044;-77
2024/01/07 06:48:01;;;;;;;0.68;0.68;;;3.90;99.90;;;;;;5076051;28;20039;-77
2024/01/07 06:50:28;;;;;;;2.40;1.70;;;4.00;99.90;;;;;;5079460;28;20032;-76
2024/01/07 06:52:54;;;;;;;0.50;0.50;;;4.00;99.90;;;;;;5077941;28;20032;-77
2024/01/07 06:55:21;;;;;;;1.70;1.38;;;3.90;99.90;;;;;;5078141;28;20055;-77
2024/01/07 06:57:47;;;;;;;1.48;1.40;;;4.00;99.90;;;;;;5074463;28;20040;-76
2024/01/07 07:00:14;;;;;;;2.08;1.98;;;4.00;99.90;;;;;;5075719;28;20039;-77
2024/01/07 07:02:40;;;;;;;0.57;0.55;;;4.00;99.90;;;;;;5081397;28;20040;-75
2024/01/07 07:05:08;;;;;;;1.63;1.52;;;4.00;99.90;;;;;;5077332;28;20456;-77
2024/01/07 07:07:34;;;;;;;2.67;2.20;;;4.00;99.90;;;;;;5077302;28;20059;-77
2024/01/07 07:10:01;;;;;;;1.27;1.17;;;4.00;99.90;;;;;;5064156;28;20048;-75
2024/01/07 07:12:27;;;;;;;5.65;1.80;;;4.00;99.90;;;;;;5077729;28;20020;-77
2024/01/07 07:14:53;;;;;;;1.08;1.00;;;4.00;99.90;;;;;;5075521;28;20040;-75
2024/01/07 07:17:19;;;;;;;0.75;0.70;;;4.00;99.90;;;;;;5069518;28;20047;-77
2024/01/07 07:19:45;;;;;;;3.97;1.70;;;4.00;99.90;;;;;;5079780;28;20111;-77
2024/01/07 07:22:11;;;;;;;0.35;0.35;;;4.00;99.90;;;;;;5064157;28;20032;-76
2024/01/07 07:24:41;;;;;;;1.80;1.42;;;4.00;99.90;;;;;;5073492;28;20039;-76
2024/01/07 07:27:08;;;;;;;1.15;1.15;;;4.00;99.90;;;;;;5083348;28;20036;-77
2024/01/07 07:29:34;;;;;;;2.45;1.80;;;4.00;99.90;;;;;;5081995;28;20036;-77
2024/01/07 07:32:00;;;;;;;1.73;1.63;;;4.00;99.90;;;;;;5081803;28;20384;-77
2024/01/07 07:34:26;;;;;;;1.50;1.27;;;4.00;99.90;;;;;;5079763;28;20362;-77
2024/01/07 07:36:52;;;;;;;1.33;1.23;;;4.00;99.90;;;;;;5066631;28;20052;-77
2024/01/07 07:39:19;;;;;;;1.38;1.35;;;4.00;99.90;;;;;;5082890;28;20024;-76
2024/01/07 07:41:46;;;;;;;1.52;1.25;;;4.00;99.90;;;;;;5083141;28;20043;-78
2024/01/07 07:44:12;;;;;;;3.60;1.38;;;4.00;99.90;;;;;;5081561;28;20024;-76
2024/01/07 07:46:38;;;;;;;1.88;1.77;;;4.00;99.90;;;;;;5082133;28;20040;-76
2024/01/07 07:49:05;;;;;;;1.75;1.65;;;4.00;99.90;;;;;;5087114;28;20036;-77
2024/01/07 07:51:31;;;;;;;0.65;0.65;;;4.00;99.90;;;;;;5080939;28;20437;-77
2024/01/07 07:53:57;;;;;;;1.40;1.30;;;4.00;99.90;;;;;;5080107;28;20040;-78
2024/01/07 07:56:23;;;;;;;0.90;0.85;;;4.00;99.90;;;;;;5078910;28;20040;-76
2024/01/07 07:58:49;;;;;;;1.73;1.63;;;4.00;99.90;;;;;;5080614;28;20036;-77
2024/01/07 08:01:18;;;;;;;1.15;1.05;;;4.00;99.90;;;;;;5065990;28;20047;-75
2024/01/07 08:03:44;;;;;;;3.47;1.38;;;4.00;99.90;;;;;;5081827;28;20028;-77
2024/01/07 08:06:10;;;;;;;1.20;1.13;;;4.00;99.90;;;;;;5076387;28;20036;-77
2024/01/07 08:08:36;;;;;;;5.57;2.25;;;4.00;99.90;;;;;;5072091;28;20040;-77
2024/01/07 08:11:06;;;;;;;1.10;0.75;;;4.00;99.90;;;;;;5080794;28;20035;-77
2024/01/07 08:13:32;;;;;;;2.95;1.85;;;3.90;99.90;;;;;;5061732;28;20515;-77
2024/01/07 08:15:58;;;;;;;0.95;0.90;;;3.90;95.70;;;;;;5081089;28;20047;-77
2024/01/07 08:18:24;;;;;;;2.55;1.63;;;4.00;97.90;;;;;;5073555;28;20386;-76
2024/01/07 08:20:50;;;;;;;1.48;1.30;;;3.90;98.20;;;;;;5084079;28;20020;-76
2024/01/07 08:23:16;;;;;;;1.33;1.23;;;3.90;91.70;;;;;;5083003;28;20036;-78
2024/01/07 08:25:44;;;;;;;1.15;1.05;;;3.90;44.40;;;;;;5081178;28;20033;-75
2024/01/07 08:28:11;;;;;;;2.47;2.15;;;3.90;16.00;;;;;;5054859;28;20044;-76
2024/01/07 08:30:37;;;;;;;1.17;1.15;;;3.90;22.30;;;;;;5083386;28;20032;-77
2024/01/07 08:33:03;;;;;;;2.85;1.60;;;3.90;15.00;;;;;;5078887;28;20047;-77
2024/01/07 08:35:29;;;;;;;14.75;2.67;;;3.90;1.00;;;;;;5059545;28;20044;-78
2024/01/07 08:37:55;;;;;;;2.17;1.98;;;3.90;1.00;;;;;;5082628;28;20053;-76
2024/01/07 08:40:22;;;;;;;0.35;0.35;;;3.90;1.00;;;;;;5080178;28;20028;-77
2024/01/07 08:42:48;;;;;;;1.55;1.35;;;3.90;1.00;;;;;;5081697;28;20024;-77
2024/01/07 08:45:14;;;;;;;1.15;1.13;;;3.90;1.00;;;;;;5079852;28;20455;-78
2024/01/07 08:47:40;;;;;;;3.83;0.80;;;3.90;1.00;;;;;;5077783;28;20037;-76
2024/01/07 08:50:07;;;;;;;2.92;1.38;;;3.80;1.00;;;;;;5077889;28;20040;-77
2024/01/07 08:52:35;;;;;;;1.92;1.77;;;3.80;1.00;;;;;;5079693;28;20022;-77
2024/01/07 08:55:02;;;;;;;0.57;0.57;;;3.80;1.00;;;;;;5076746;28;20758;-77
2024/01/07 08:57:28;;;;;;;3.25;2.95;;;3.80;1.00;;;;;;5084598;28;20047;-78
2024/01/07 08:59:54;;;;;;;1.30;1.20;;;3.80;1.00;;;;;;5062283;28;20048;-77
2024/01/07 09:02:21;;;;;;;1.27;1.15;;;3.80;1.00;;;;;;5079384;28;20028;-78
2024/01/07 09:04:47;;;;;;;3.28;2.13;;;3.90;1.00;;;;;;5077487;28;20044;-76
2024/01/07 09:07:16;;;;;;;1.83;1.73;;;3.80;1.00;;;;;;5078603;28;20047;-77
2024/01/07 09:09:42;;;;;;;1.00;1.00;;;3.90;1.00;;;;;;5058810;28;20378;-80
2024/01/07 09:12:08;;;;;;;1.70;1.58;;;3.80;1.00;;;;;;5078747;28;20033;-77
2024/01/07 09:14:36;;;;;;;0.35;0.35;;;3.80;1.00;;;;;;5078779;28;20028;-76
2024/01/07 09:17:03;;;;;;;1.13;0.68;;;3.90;1.00;;;;;;5079982;28;20039;-76
2024/01/07 09:19:29;;;;;;;1.13;1.10;;;3.90;99.90;;;;;;5078464;28;20035;-77
2024/01/07 09:21:55;;;;;;;1.70;1.60;;;3.90;99.90;;;;;;5078097;28;20469;-76
2024/01/07 09:24:22;;;;;;;4.15;2.47;;;3.90;99.90;;;;;;5078367;28;20488;-77
2024/01/07 09:26:48;;;;;;;1.65;1.55;;;3.90;99.90;;;;;;5079340;28;20047;-77
2024/01/07 09:29:14;;;;;;;0.22;0.22;;;3.90;99.90;;;;;;5080153;28;20032;-76
2024/01/07 09:31:41;;;;;;;1.25;1.25;;;3.90;99.90;;;;;;5078961;28;20043;-76
2024/01/07 09:34:07;;;;;;;3.05;2.60;;;4.00;99.90;;;;;;5078294;28;20025;-76
2024/01/07 09:36:35;;;;;;;1.02;1.02;;;4.00;99.90;;;;;;5080012;28;20072;-75
2024/01/07 09:39:02;;;;;;;0.45;0.45;;;4.00;99.90;;;;;;5080135;28;20032;-76
2024/01/07 09:41:28;;;;;;;2.10;1.98;;;4.00;99.90;;;;;;5076402;28;20045;-76
2024/01/07 09:43:57;;;;;;;2.72;1.33;;;4.00;99.90;;;;;;5065872;28;20028;-78
2024/01/07 09:46:24;;;;;;;0.30;0.30;;;4.10;99.90;;;;;;5080843;28;20035;-77
2024/01/07 09:48:50;;;;;;;0.68;0.50;;;4.10;99.90;;;;;;5078311;28;20036;-79
2024/01/07 09:51:22;;;;;;;1.05;1.05;;;4.20;99.90;;;;;;5078960;28;20032;-76
2024/01/07 09:53:55;;;;;;;2.17;1.90;;;4.20;99.90;;;;;;5079647;28;20029;-77
2024/01/07 09:56:26;;;;;;;1.98;1.77;;;4.20;99.90;;;;;;5078873;28;20029;-77
2024/01/07 09:58:52;;;;;;;0.82;0.82;;;4.20;99.90;;;;;;5080010;28;20028;-77
2024/01/07 10:01:18;;;;;;;1.15;1.13;;;4.20;99.90;;;;;;5078474;28;20029;-75
2024/01/07 10:03:45;;;;;;;0.47;0.30;;;4.20;99.90;;;;;;5079265;28;20028;-79
2024/01/07 10:06:12;;;;;;;0.52;0.52;;;4.20;99.90;;;;;;5081736;28;20033;-75
2024/01/07 10:08:39;;;;;;;0.73;0.73;;;4.10;99.90;;;;;;5081464;28;20501;-75
2024/01/07 10:11:05;;;;;;;0.85;0.85;;;4.10;99.90;;;;;;5060092;28;20119;-76
2024/01/07 10:13:32;;;;;;;0.75;0.45;;;4.10;99.90;;;;;;5066156;28;20045;-77
2024/01/07 10:15:58;;;;;;;1.55;1.25;;;4.20;99.90;;;;;;5077052;28;20051;-76
2024/01/07 10:18:25;;;;;;;2.08;1.75;;;4.30;99.90;;;;;;5080240;28;20047;-77
2024/01/07 10:20:52;;;;;;;0.88;0.88;;;4.20;99.90;;;;;;5058692;28;20049;-79
2024/01/07 10:23:21;;;;;;;0.68;0.68;;;4.20;99.90;;;;;;5042989;28;20036;-80
2024/01/07 10:25:47;;;;;;;1.42;1.33;;;4.20;99.90;;;;;;5063863;28;20025;-75
2024/01/07 10:28:16;;;;;;;1.08;1.08;;;4.30;99.90;;;;;;5081880;28;20040;-77
2024/01/07 10:30:52;;;;;;;0.68;0.68;;;4.30;99.90;;;;;;5084663;28;20028;-77
2024/01/07 10:33:19;;;;;;;1.33;1.23;;;4.20;99.90;;;;;;5083575;28;20025;-76
2024/01/07 10:35:55;;;;;;;1.17;1.10;;;4.40;99.90;;;;;;5081450;28;20024;-76
2024/01/07 10:38:22;;;;;;;1.00;0.88;;;4.40;79.80;;;;;;5079855;28;20499;-77
2024/01/07 10:40:50;;;;;;;1.02;0.85;;;4.30;81.40;;;;;;5077999;28;20028;-76
2024/01/07 10:43:16;;;;;;;1.38;1.27;;;4.40;85.70;;;;;;5080473;28;20041;-78
2024/01/07 10:45:47;;;;;;;1.30;1.20;;;4.50;51.00;;;;;;5079532;28;20040;-76
2024/01/07 10:48:17;;;;;;;1.73;1.63;;;4.50;1.00;;;;;;5081226;28;20028;-76
2024/01/07 10:50:45;;;;;;;0.13;0.13;;;4.40;18.20;;;;;;5083899;28;20037;-76
2024/01/07 10:53:20;;;;;;;0.55;0.55;;;4.30;1.00;;;;;;5081337;28;20366;-77
2024/01/07 10:55:54;;;;;;;1.40;1.30;;;4.20;1.00;;;;;;5080012;28;20032;-77
2024/01/07 10:58:21;;;;;;;2.47;1.70;;;4.20;11.70;;;;;;5081564;28;20481;-77
2024/01/07 11:00:48;;;;;;;1.42;1.33;;;4.30;1.00;;;;;;5082962;28;20051;-79
2024/01/07 11:03:19;;;;;;;2.00;1.88;;;4.20;1.00;;;;;;5081149;28;20029;-78
2024/01/07 11:06:01;;;;;;;1.40;1.30;;;4.10;1.00;;;;;;5078567;28;20031;-73
2024/01/07 11:08:40;;;;;;;1.35;1.25;;;4.00;1.00;;;;;;5084413;28;20043;-78
2024/01/07 11:11:38;;;;;;;2.38;1.13;;;3.90;1.00;;;;;;5086593;28;20391;-77
2024/01/07 11:14:04;;;;;;;0.45;0.45;;;3.90;1.00;;;;;;5078854;28;20485;-78
2024/01/07 11:16:44;;;;;;;0.50;0.50;;;3.90;1.00;;;;;;5063195;28;20039;-77
2024/01/07 11:19:14;;;;;;;0.98;0.90;;;4.00;1.00;;;;;;5068176;28;20050;-78
2024/01/07 11:21:40;;;;;;;1.00;0.80;;;3.90;1.00;;;;;;5069329;28;20028;-77
2024/01/07 11:24:06;;;;;;;0.32;0.32;;;3.90;1.00;;;;;;5080821;28;20020;-80
2024/01/07 11:26:34;;;;;;;0.82;0.82;;;3.90;1.00;;;;;;5070436;28;20112;-79
2024/01/07 11:29:00;;;;;;;0.50;0.50;;;3.90;1.00;;;;;;5078784;28;20032;-78
2024/01/07 11:31:38;;;;;;;0.47;0.47;;;3.90;1.00;;;;;;5083058;28;20050;-76
2024/01/07 11:34:04;;;;;;;0.20;0.20;;;3.90;1.00;;;;;;5081621;28;20031;-77
2024/01/07 11:36:31;;;;;;;0.45;0.45;;;3.90;1.00;;;;;;5082496;28;20405;-78
2024/01/07 11:38:58;;;;;;;0.40;0.40;;;3.90;1.00;;;;;;5066476;28;20040;-82
2024/01/07 11:41:25;;;;;;;0.20;0.20;;;4.00;1.00;;;;;;5062280;28;20032;-77
2024/01/07 11:43:54;;;;;;;0.38;0.38;;;3.90;99.90;;;;;;5084776;28;20039;-79
2024/01/07 11:46:21;;;;;;;0.38;0.38;;;3.80;99.90;;;;;;5078344;28;20032;-78
2024/01/07 11:48:48;;;;;;;0.75;0.75;;;3.70;99.90;;;;;;5071440;28;20045;-77
2024/01/07 11:51:14;;;;;;;0.45;0.45;;;3.80;99.90;;;;;;5082753;28;20029;-79
2024/01/07 11:53:41;;;;;;;1.25;1.15;;;3.80;99.90;;;;;;5070753;28;20036;-76
2024/01/07 11:56:08;;;;;;;1.13;1.13;;;3.80;99.90;;;;;;5082225;28;20069;-77
2024/01/07 11:58:35;;;;;;;0.57;0.52;;;3.80;99.90;;;;;;5080092;28;20041;-76
2024/01/07 12:01:03;;;;;;;0.40;0.40;;;3.70;99.90;;;;;;5078328;28;20059;-78
2024/01/07 12:03:29;;;;;;;0.85;0.73;;;3.80;99.90;;;;;;5069451;28;20029;-76
2024/01/07 12:05:56;;;;;;;0.55;0.55;;;3.70;99.90;;;;;;5077857;28;20047;-76
2024/01/07 12:08:22;;;;;;;0.55;0.55;;;3.60;99.90;;;;;;5080769;28;20036;-77
2024/01/07 12:10:49;;;;;;;0.70;0.63;;;3.60;99.90;;;;;;5059791;28;20046;-78
2024/01/07 12:13:16;;;;;;;1.60;1.50;;;3.60;99.90;;;;;;5083411;28;20028;-79
2024/01/07 12:15:43;;;;;;;0.55;0.47;;;3.50;99.90;;;;;;5078614;28;20039;-78
2024/01/07 12:18:09;;;;;;;1.30;1.20;;;3.50;99.90;;;;;;5081241;28;20028;-79
2024/01/07 12:20:35;;;;;;;0.38;0.38;;;3.50;99.90;;;;;;5080368;28;20051;-77
2024/01/07 12:23:09;;;;;;;0.40;0.40;;;3.40;99.90;;;;;;5074891;28;20039;-78
2024/01/07 12:25:35;;;;;;;0.10;0.10;;;3.50;99.90;;;;;;5085974;28;20032;-78
2024/01/07 12:28:02;;;;;;;0.60;0.60;;;3.60;99.90;;;;;;5085487;28;20040;-78
2024/01/07 12:30:30;;;;;;;0.52;0.52;;;3.60;99.90;;;;;;5068732;28;20043;-77
2024/01/07 12:32:57;;;;;;;0.52;0.52;;;3.60;99.90;;;;;;5058662;28;20028;-76
2024/01/07 12:35:26;;;;;;;0.30;0.30;;;3.60;99.90;;;;;;5077421;28;20039;-75
2024/01/07 12:37:52;;;;;;;2.40;1.13;;;3.50;99.90;;;;;;5082843;28;20468;-74
2024/01/07 12:40:19;;;;;;;1.02;0.95;;;3.50;99.90;;;;;;5083370;28;20032;-75
2024/01/07 12:42:47;;;;;;;1.60;1.50;;;3.40;99.90;;;;;;5069768;28;20037;-77
2024/01/07 12:45:14;;;;;;;5.05;1.00;;;3.40;99.90;;;;;;5087457;28;20039;-77
2024/01/07 12:47:41;;;;;;;0.70;0.70;;;3.30;99.90;;;;;;5089315;28;20397;-75
2024/01/07 12:50:11;;;;;;;1.05;1.05;;;3.30;99.90;;;;;;5083764;28;20446;-77
2024/01/07 12:52:42;;;;;;;0.50;0.50;;;3.40;99.90;;;;;;5063961;28;20413;-78
2024/01/07 12:55:08;;;;;;;0.33;0.33;;;3.30;99.90;;;;;;5071576;28;20761;-78